Time;durP1;ratioP1;P1;durP2;ratioP2;P2;SDS_P1;SDS_P2;PMS_P1;PMS_P2;Temp;Humidity;BMP_temperature;BMP_pressure;BME280_temperature;BME280_humidity;BME280_pressure;Samples;Min_cycle;Max_cycle;Signal;HPM_P1;HPM_P2
2022/01/19 00:02:08;;;;;;;3.20;1.90;;;;;;;-2.51;62.05;102297.11;108268;1241;63519;-77
2022/01/19 00:04:37;;;;;;;3.80;1.90;;;;;;;-2.52;62.21;102302.41;108561;1241;60161;-76
2022/01/19 00:07:06;;;;;;;5.20;2.10;;;;;;;-2.53;62.02;102309.56;108724;1241;71070;-78
2022/01/19 00:09:35;;;;;;;4.60;2.10;;;;;;;-2.56;62.10;102312.79;108156;1242;72944;-75
2022/01/19 00:12:05;;;;;;;2.20;1.50;;;;;;;-2.58;62.09;102327.27;108215;1241;69550;-81
2022/01/19 00:14:35;;;;;;;6.00;2.10;;;;;;;-2.62;62.24;102331.33;108154;1241;71909;-75
2022/01/19 00:17:04;;;;;;;7.40;2.70;;;;;;;-2.67;62.37;102332.66;108007;1241;61708;-79
2022/01/19 00:19:33;;;;;;;4.50;2.30;;;;;;;-2.72;62.28;102331.93;108159;1241;61641;-79
2022/01/19 00:22:02;;;;;;;4.10;1.70;;;;;;;-2.76;62.46;102336.16;108072;1241;72163;-77
2022/01/19 00:24:31;;;;;;;3.50;2.20;;;;;;;-2.77;63.51;102331.73;107931;1243;69509;-78
2022/01/19 00:27:00;;;;;;;8.00;2.80;;;;;;;-2.73;63.66;102330.21;108138;1241;68710;-79
2022/01/19 00:29:29;;;;;;;4.20;2.30;;;;;;;-2.70;63.95;102325.81;107923;1243;70965;-76
2022/01/19 00:31:58;;;;;;;4.70;2.10;;;;;;;-2.71;63.00;102329.55;107815;1243;59058;-78
2022/01/19 00:34:28;;;;;;;3.80;2.00;;;;;;;-2.72;62.93;102330.91;108026;1241;59760;-81
2022/01/19 00:36:57;;;;;;;14.50;2.30;;;;;;;-2.72;62.97;102332.63;108122;1241;73515;-80
2022/01/19 00:39:31;;;;;;;10.00;2.20;;;;;;;-2.74;62.74;102337.19;108172;1241;69392;-82
2022/01/19 00:42:00;;;;;;;8.20;2.20;;;;;;;-2.74;62.74;102337.53;108219;1241;67901;-80
2022/01/19 00:44:29;;;;;;;5.10;1.90;;;;;;;-2.73;62.66;102345.20;107988;1241;73081;-80
2022/01/19 00:47:00;;;;;;;5.60;2.10;;;;;;;-2.72;62.86;102337.89;107712;1241;62617;-78
2022/01/19 00:49:28;;;;;;;4.60;2.10;;;;;;;-2.73;62.77;102336.70;108164;1241;59709;-79
2022/01/19 00:51:57;;;;;;;4.60;2.00;;;;;;;-2.73;62.88;102341.82;108111;1242;73426;-78
2022/01/19 00:54:28;;;;;;;6.60;2.60;;;;;;;-2.71;63.07;102343.89;108039;1241;72237;-78
2022/01/19 00:56:57;;;;;;;5.70;2.30;;;;;;;-2.71;62.84;102342.52;107701;1241;71730;-78
2022/01/19 00:59:26;;;;;;;3.50;2.10;;;;;;;-2.76;62.83;102341.28;107918;1241;73561;-78
2022/01/19 01:01:55;;;;;;;4.40;2.10;;;;;;;-2.77;62.88;102337.85;108013;1240;59599;-78
2022/01/19 01:04:25;;;;;;;4.20;2.30;;;;;;;-2.81;62.98;102335.95;107965;1242;60451;-79
2022/01/19 01:06:55;;;;;;;4.70;1.70;;;;;;;-2.81;63.16;102332.54;108137;1241;71566;-79
2022/01/19 01:09:24;;;;;;;3.50;1.80;;;;;;;-2.85;63.60;102323.80;107972;1242;72200;-79
2022/01/19 01:12:19;;;;;;;3.50;2.20;;;;;;;-2.85;63.48;102334.05;107976;1243;70117;-78
2022/01/19 01:20:25;;;;;;;4.60;2.00;;;;;;;-2.97;63.88;102341.94;107916;1241;60756;-80
2022/01/19 01:22:55;;;;;;;5.00;2.00;;;;;;;-2.99;64.24;102347.21;108034;1243;73197;-82
2022/01/19 01:25:25;;;;;;;5.70;2.10;;;;;;;-3.01;64.27;102349.90;107781;1242;72855;-81
2022/01/19 01:27:54;;;;;;;6.40;2.40;;;;;;;-3.04;64.44;102356.02;107866;1241;69514;-81
2022/01/19 01:30:23;;;;;;;5.10;2.20;;;;;;;-3.04;64.84;102349.71;107990;1241;71148;-78
2022/01/19 01:32:52;;;;;;;5.10;2.10;;;;;;;-3.03;64.83;102341.02;108012;1241;59137;-74
2022/01/19 01:35:22;;;;;;;5.30;2.00;;;;;;;-3.09;64.72;102344.72;107873;1242;62542;-79
2022/01/19 01:37:50;;;;;;;5.80;2.80;;;;;;;-3.12;64.72;102344.86;107791;1241;74592;-80
2022/01/19 01:40:22;;;;;;;7.00;2.10;;;;;;;-3.15;65.00;102335.11;107809;1243;73139;-79
2022/01/19 01:42:56;;;;;;;6.80;2.20;;;;;;;-3.17;65.06;102341.39;107816;1241;70442;-78
2022/01/19 01:45:29;;;;;;;5.20;2.10;;;;;;;-3.20;65.31;102348.70;107826;1243;73063;-77
2022/01/19 01:53:27;;;;;;;5.80;2.50;;;;;;;-3.24;65.61;102359.39;107979;1243;75405;-79
2022/01/19 01:56:04;;;;;;;;;;;;;;;-3.27;65.39;102356.45;108014;1243;72261;-78
2022/01/19 01:58:41;;;;;;;6.60;2.60;;;;;;;-3.36;65.52;102369.98;107848;1242;70282;-79
2022/01/19 02:02:03;;;;;;;3.80;2.00;;;;;;;-3.44;65.53;102365.29;107637;1244;73362;-77
2022/01/19 02:04:34;;;;;;;6.40;2.60;;;;;;;-3.46;65.95;102362.38;107844;1243;60521;-76
2022/01/19 02:07:30;;;;;;;7.00;2.20;;;;;;;-3.43;66.43;102371.94;108974;1242;58948;-75
2022/01/19 02:10:02;;;;;;;7.80;2.90;;;;;;;-3.42;66.14;102370.08;107936;1243;72041;-76
2022/01/19 02:23:49;;;;;;;9.10;2.60;;;;;;;-3.48;66.26;102380.05;108049;1243;59812;-81
2022/01/19 02:26:26;;;;;;;4.30;1.90;;;;;;;-3.49;66.02;102376.65;108130;1243;74638;-79
2022/01/19 02:29:21;;;;;;;5.60;2.20;;;;;;;-3.53;66.31;102374.55;108072;1243;70856;-72
2022/01/19 02:40:15;;;;;;;7.50;2.60;;;;;;;-3.74;67.08;102355.73;108002;1243;60262;-79
2022/01/19 02:51:14;;;;;;;6.60;2.70;;;;;;;-3.95;68.42;102354.42;109362;1243;71031;-79
2022/01/19 02:53:44;;;;;;;7.50;3.00;;;;;;;-4.00;68.34;102353.51;108931;1242;58881;-81
2022/01/19 02:56:24;;;;;;;4.60;2.00;;;;;;;-4.04;68.72;102349.37;108343;1243;59763;-81
2022/01/19 02:59:10;;;;;;;4.60;2.20;;;;;;;-4.07;69.01;102351.55;108361;1242;71666;-79
2022/01/19 03:09:47;;;;;;;6.70;2.30;;;;;;;-4.25;69.42;102349.23;108034;1243;59969;-79
2022/01/19 03:12:16;;;;;;;5.70;2.60;;;;;;;-4.30;69.81;102347.80;107967;1243;59773;-80
2022/01/19 03:14:45;;;;;;;7.50;2.60;;;;;;;-4.34;69.98;102347.91;108124;1242;72110;-79
2022/01/19 03:17:32;;;;;;;3.30;1.70;;;;;;;-4.34;70.00;102344.67;104293;1285;602811;-81
2022/01/19 03:20:02;;;;;;;6.00;2.40;;;;;;;-4.40;70.11;102351.39;106182;1264;60552;-79
2022/01/19 03:22:38;;;;;;;6.10;2.50;;;;;;;-4.41;70.17;102353.23;107248;1252;59607;-80
2022/01/19 03:25:12;;;;;;;8.20;2.60;;;;;;;-4.44;70.39;102350.98;107217;1254;73532;-80
2022/01/19 03:27:47;;;;;;;8.40;3.20;;;;;;;-4.44;70.60;102349.96;107232;1253;71953;-81
2022/01/19 03:30:20;;;;;;;3.10;1.80;;;;;;;-4.46;70.39;102350.27;107040;1251;221479;-80
2022/01/19 03:32:49;;;;;;;6.90;2.70;;;;;;;-4.46;70.81;102346.87;107315;1251;71772;-80
2022/01/19 03:35:18;;;;;;;6.10;2.80;;;;;;;-4.45;70.65;102346.02;107353;1251;59165;-80
2022/01/19 03:37:48;;;;;;;5.90;3.00;;;;;;;-4.44;70.93;102353.35;107288;1251;61330;-80
2022/01/19 03:40:18;;;;;;;8.20;3.90;;;;;;;-4.42;71.11;102352.20;107198;1251;69902;-81
2022/01/19 03:42:46;;;;;;;7.90;3.40;;;;;;;-4.41;71.22;102357.84;107286;1251;71356;-80
2022/01/19 03:45:17;;;;;;;7.10;2.90;;;;;;;-4.42;71.38;102351.36;107352;1251;70511;-80
2022/01/19 03:48:10;;;;;;;5.60;2.50;;;;;;;-4.42;71.63;102354.60;107248;1251;74254;-77
2022/01/19 03:50:39;;;;;;;8.30;3.00;;;;;;;-4.43;71.81;102355.60;107257;1250;62774;-78
2022/01/19 03:53:08;;;;;;;7.20;4.30;;;;;;;-4.41;72.07;102354.45;107205;1251;59304;-78
2022/01/19 03:55:38;;;;;;;8.60;4.20;;;;;;;-4.36;72.76;102347.70;107223;1252;70858;-79
2022/01/19 03:58:07;;;;;;;11.40;4.70;;;;;;;-4.30;72.50;102353.08;107292;1251;72287;-79
2022/01/19 04:00:41;;;;;;;8.30;3.10;;;;;;;-4.27;72.38;102352.77;107225;1251;69709;-79
2022/01/19 04:03:14;;;;;;;7.40;4.10;;;;;;;-4.25;73.03;102347.54;107177;1251;71956;-78
2022/01/19 04:05:55;;;;;;;14.30;4.60;;;;;;;-4.19;73.78;102348.64;107272;1251;63002;-77
2022/01/19 04:08:25;;;;;;;10.60;5.00;;;;;;;-4.06;73.72;102351.21;107381;1251;62689;-77
2022/01/19 04:10:55;;;;;;;14.20;4.50;;;;;;;-3.98;74.16;102350.83;107348;1251;72636;-77
2022/01/19 04:15:59;;;;;;;5.80;3.10;;;;;;;-3.95;73.22;102367.38;107342;1251;69047;-80
2022/01/19 04:18:28;;;;;;;6.30;2.90;;;;;;;-3.95;73.16;102361.06;107372;1251;71929;-82
2022/01/19 04:21:01;;;;;;;9.00;4.60;;;;;;;-3.96;72.97;102369.05;107308;1254;59066;-78
2022/01/19 04:23:30;;;;;;;12.60;4.70;;;;;;;-4.05;73.30;102365.86;107387;1250;61605;-80
2022/01/19 04:26:00;;;;;;;8.20;3.60;;;;;;;-4.10;73.13;102371.40;107408;1251;71414;-78
2022/01/19 04:28:30;;;;;;;14.90;6.30;;;;;;;-4.18;73.20;102374.70;107249;1250;71576;-79
2022/01/19 04:30:59;;;;;;;13.10;5.50;;;;;;;-4.22;73.68;102372.92;107223;1251;70438;-77
2022/01/19 04:33:28;;;;;;;5.80;3.20;;;;;;;-4.24;73.76;102371.88;107066;1251;72165;-79
2022/01/19 04:36:18;;;;;;;14.20;6.30;;;;;;;-4.22;74.48;102374.12;107295;1251;58939;-80
2022/01/19 05:05:17;;;;;;;9.80;4.40;;;;;;;-4.12;74.14;102357.26;107337;1251;71555;-77
2022/01/19 05:16:32;;;;;;;13.40;4.80;;;;;;;-4.19;74.81;102347.27;106357;1259;72035;-76
2022/01/19 05:19:02;;;;;;;14.20;5.70;;;;;;;-4.20;74.79;102345.23;106367;1260;69433;-73
2022/01/19 05:21:32;;;;;;;14.00;5.10;;;;;;;-4.20;74.80;102350.48;106884;1251;69869;-73
2022/01/19 05:24:13;;;;;;;15.00;5.90;;;;;;;-4.17;75.47;102353.27;107165;1251;73596;-73
2022/01/19 05:27:04;;;;;;;14.10;7.40;;;;;;;-4.16;75.14;102349.36;106964;1254;62529;-75
2022/01/19 05:29:36;;;;;;;11.10;5.40;;;;;;;-4.15;75.36;102354.98;107179;1251;61731;-73
2022/01/19 05:32:06;;;;;;;16.00;7.70;;;;;;;-4.16;75.17;102357.70;107131;1251;73352;-74
2022/01/19 05:34:38;;;;;;;12.10;6.30;;;;;;;-4.19;74.96;102358.34;107190;1251;70960;-72
2022/01/19 05:37:25;;;;;;;18.40;7.20;;;;;;;-4.21;75.13;102359.33;107137;1254;68708;-73
2022/01/19 05:40:44;;;;;;;10.40;4.60;;;;;;;-4.17;75.21;102358.19;107192;1251;72514;-71
2022/01/19 05:43:13;;;;;;;13.50;6.60;;;;;;;-4.18;75.52;102353.94;107099;1252;58884;-73
2022/01/19 05:45:43;;;;;;;16.90;8.70;;;;;;;-4.21;75.22;102360.02;107431;1251;61286;-72
2022/01/19 05:48:17;;;;;;;13.60;6.30;;;;;;;-4.23;75.46;102366.80;107625;1251;73043;-73
2022/01/19 05:50:52;;;;;;;15.90;7.70;;;;;;;-4.20;75.70;102368.87;107474;1251;73688;-72
2022/01/19 05:53:24;;;;;;;18.70;8.20;;;;;;;-4.15;75.81;102370.48;107255;1252;68416;-70
2022/01/19 05:55:53;;;;;;;15.00;8.20;;;;;;;-4.07;75.69;102370.09;107177;1253;72246;-74
2022/01/19 05:58:22;;;;;;;10.20;5.30;;;;;;;-4.03;75.61;102373.89;109681;1251;57941;-72
2022/01/19 06:00:54;;;;;;;13.10;6.30;;;;;;;-4.02;75.42;102375.27;109360;1250;58825;-74
2022/01/19 06:03:23;;;;;;;11.90;6.80;;;;;;;-4.04;75.56;102381.70;107318;1251;70851;-73
2022/01/19 06:06:10;;;;;;;23.00;9.00;;;;;;;-4.07;75.71;102377.06;107020;1251;69408;-71
2022/01/19 06:09:08;;;;;;;12.00;6.10;;;;;;;-4.06;75.51;102376.73;107108;1251;69073;-74
2022/01/19 06:11:38;;;;;;;19.70;8.90;;;;;;;-4.05;75.46;102378.79;107275;1250;72024;-74
2022/01/19 06:14:08;;;;;;;14.20;6.60;;;;;;;-4.05;75.39;102379.64;107225;1251;60778;-70
2022/01/19 06:16:37;;;;;;;13.50;5.70;;;;;;;-4.08;75.23;102381.65;107090;1251;60891;-73
2022/01/19 06:19:06;;;;;;;10.00;5.30;;;;;;;-4.12;75.55;102385.33;107074;1251;73062;-72
2022/01/19 06:21:35;;;;;;;13.40;4.70;;;;;;;-4.11;75.77;102391.30;107234;1250;70700;-74
2022/01/19 06:24:05;;;;;;;16.10;7.90;;;;;;;-4.11;75.75;102393.01;107263;1251;70219;-73
2022/01/19 06:26:35;;;;;;;16.50;8.10;;;;;;;-4.06;75.90;102396.98;107233;1251;74826;-74
2022/01/19 06:29:05;;;;;;;13.70;6.90;;;;;;;-4.05;75.78;102393.93;107213;1250;59984;-72
2022/01/19 06:31:34;;;;;;;17.80;8.00;;;;;;;-4.02;75.61;102401.64;107139;1251;60131;-70
2022/01/19 06:34:05;;;;;;;20.40;8.50;;;;;;;-4.00;75.60;102399.63;107261;1251;72781;-74
2022/01/19 06:36:53;;;;;;;18.40;9.00;;;;;;;-3.99;75.54;102395.90;107302;1250;70171;-75
2022/01/19 06:39:32;;;;;;;21.70;9.70;;;;;;;-3.94;75.25;102402.43;107175;1251;71439;-72
2022/01/19 06:42:11;;;;;;;20.80;8.90;;;;;;;-3.91;75.24;102404.02;107302;1250;72110;-72
2022/01/19 06:44:41;;;;;;;17.30;8.10;;;;;;;-3.86;75.23;102405.27;107306;1252;58918;-73
2022/01/19 06:47:10;;;;;;;20.90;8.10;;;;;;;-3.79;74.94;102412.19;107105;1251;59065;-70
2022/01/19 06:49:40;;;;;;;23.10;9.00;;;;;;;-3.77;75.03;102407.45;107226;1253;71685;-73
2022/01/19 06:52:11;;;;;;;20.90;10.20;;;;;;;-3.70;74.65;102415.55;107274;1250;72981;-73
2022/01/19 06:54:41;;;;;;;18.60;10.40;;;;;;;-3.72;74.71;102417.39;107208;1251;70461;-73
2022/01/19 06:57:11;;;;;;;25.20;10.10;;;;;;;-3.65;74.79;102420.89;107130;1254;72341;-71
2022/01/19 07:00:00;;;;;;;19.00;9.30;;;;;;;-3.58;74.34;102420.13;107274;1250;58889;-76
2022/01/19 07:03:27;;;;;;;15.90;6.60;;;;;;;-3.43;74.16;102421.00;107139;1250;61295;-72
2022/01/19 07:06:11;;;;;;;18.30;9.50;;;;;;;-3.37;73.88;102414.11;107058;1251;71707;-71
2022/01/19 07:09:10;;;;;;;18.70;8.20;;;;;;;-3.30;73.91;102412.65;107148;1253;69699;-72
2022/01/19 07:11:43;;;;;;;18.10;9.40;;;;;;;-3.23;73.44;102410.19;107161;1251;68849;-72
2022/01/19 07:14:13;;;;;;;14.00;7.30;;;;;;;-3.18;73.27;102411.42;107306;1250;73477;-73
2022/01/19 07:16:43;;;;;;;21.60;8.80;;;;;;;-3.11;73.55;102411.34;107267;1251;60894;-73
2022/01/19 07:19:14;;;;;;;21.50;10.30;;;;;;;-2.98;73.41;102415.74;107056;1253;58971;-71
2022/01/19 07:21:44;;;;;;;21.40;10.60;;;;;;;-2.89;72.86;102409.52;109271;1250;70924;-73
2022/01/19 07:24:14;;;;;;;17.50;8.10;;;;;;;-2.86;72.70;102410.59;106914;1254;69621;-73
2022/01/19 07:26:43;;;;;;;23.00;9.50;;;;;;;-2.82;72.36;102413.02;107134;1251;69055;-71
2022/01/19 07:29:14;;;;;;;23.90;11.60;;;;;;;-2.78;72.42;102414.08;109551;1250;74312;-73
2022/01/19 07:31:50;;;;;;;21.90;9.60;;;;;;;-2.67;72.38;102407.54;109202;1250;60505;-69
2022/01/19 07:34:20;;;;;;;20.40;10.00;;;;;;;-2.55;72.38;102406.27;107860;1253;59292;-72
2022/01/19 07:36:49;;;;;;;18.90;9.90;;;;;;;-2.37;72.51;102401.30;106913;1253;70384;-72
2022/01/19 07:39:18;;;;;;;23.50;11.70;;;;;;;-2.28;71.93;102402.23;106939;1249;71486;-74
2022/01/19 07:41:48;;;;;;;21.50;10.40;;;;;;;-2.20;71.54;102401.44;106975;1250;72003;-75
2022/01/19 07:44:48;;;;;;;16.30;6.80;;;;;;;-2.06;71.01;102399.15;107110;1250;73495;-74
2022/01/19 07:47:30;;;;;;;20.10;11.20;;;;;;;-1.92;70.91;102384.04;107234;1250;61376;-74
2022/01/19 07:50:42;;;;;;;14.60;7.40;;;;;;;-1.80;70.64;102371.46;106975;1251;61593;-72
2022/01/19 07:53:30;;;;;;;13.10;6.00;;;;;;;-1.68;70.76;102378.71;107128;1251;74372;-73
2022/01/19 07:56:56;;;;;;;22.20;9.20;;;;;;;-1.52;70.56;102371.27;106654;1256;72196;-75
2022/01/19 08:00:21;;;;;;;21.40;9.90;;;;;;;-1.50;69.88;102372.46;106610;1257;69112;-73
2022/01/19 08:02:50;;;;;;;24.10;9.70;;;;;;;-1.43;69.56;102378.30;107161;1251;73650;-72
2022/01/19 08:06:09;;;;;;;14.50;7.80;;;;;;;-1.36;69.07;102385.85;107225;1249;61310;-73
2022/01/19 08:08:38;;;;;;;24.30;10.70;;;;;;;-1.27;68.92;102379.21;107214;1250;60388;-76
2022/01/19 08:11:07;;;;;;;21.70;10.80;;;;;;;-1.10;69.26;102383.38;107133;1250;74170;-75
2022/01/19 08:13:38;;;;;;;22.20;10.20;;;;;;;-0.99;68.95;102374.33;107130;1250;70781;-74
2022/01/19 08:16:07;;;;;;;19.00;10.00;;;;;;;-0.92;68.04;102375.02;107230;1250;67897;-73
2022/01/19 08:18:37;;;;;;;24.40;10.90;;;;;;;-0.94;68.38;102365.27;107052;1249;74930;-74
2022/01/19 08:21:06;;;;;;;18.70;10.90;;;;;;;-0.91;67.68;102363.41;106980;1252;60352;-74
2022/01/19 08:23:44;;;;;;;19.40;10.00;;;;;;;-0.90;67.80;102358.45;107168;1250;59081;-73
2022/01/19 08:26:15;;;;;;;22.10;11.10;;;;;;;-0.84;67.76;102358.96;107277;1250;71686;-72
2022/01/19 08:28:44;;;;;;;23.90;9.80;;;;;;;-0.75;67.22;102349.38;107222;1250;71469;-74
2022/01/19 08:31:16;;;;;;;16.60;9.00;;;;;;;-0.53;66.96;102347.50;107125;1250;67888;-73
2022/01/19 08:34:04;;;;;;;19.00;8.90;;;;;;;-0.52;66.28;102350.93;107265;1250;70374;-73
2022/01/19 08:36:52;;;;;;;23.30;10.60;;;;;;;-0.45;66.23;102352.30;107346;1250;58989;-76
2022/01/19 08:39:26;;;;;;;18.90;10.20;;;;;;;-0.37;65.68;102358.11;107308;1250;62066;-73
2022/01/19 08:41:56;;;;;;;18.80;9.50;;;;;;;-0.30;65.14;102355.54;107100;1251;72745;-70
2022/01/19 08:44:25;;;;;;;17.00;8.90;;;;;;;-0.13;65.36;102348.66;107276;1251;70086;-77
2022/01/19 08:47:00;;;;;;;17.10;8.30;;;;;;;-0.01;64.61;102341.27;107324;1250;68662;-74
2022/01/19 08:50:12;;;;;;;18.00;9.00;;;;;;;0.11;64.14;102338.16;107140;1250;73166;-74
2022/01/19 08:52:57;;;;;;;17.50;8.60;;;;;;;0.24;63.14;102337.24;106991;1251;59367;-73
2022/01/19 08:55:31;;;;;;;17.00;9.40;;;;;;;0.29;62.86;102333.46;107195;1250;59736;-75
2022/01/19 08:58:00;;;;;;;14.70;7.60;;;;;;;0.31;63.17;102335.17;107313;1250;73994;-75
2022/01/19 09:00:29;;;;;;;22.10;10.30;;;;;;;0.34;62.53;102333.63;107150;1251;71953;-77
2022/01/19 09:02:59;;;;;;;26.60;13.00;;;;;;;0.49;63.53;102327.54;107278;1250;70784;-72
2022/01/19 09:05:28;;;;;;;27.50;12.60;;;;;;;0.63;62.49;102321.65;107214;1250;72632;-72
2022/01/19 09:07:57;;;;;;;25.40;10.90;;;;;;;0.73;62.34;102319.70;107073;1252;59919;-73
2022/01/19 09:10:26;;;;;;;19.70;9.70;;;;;;;0.88;61.46;102320.65;107240;1249;60424;-71
2022/01/19 09:12:56;;;;;;;17.40;9.80;;;;;;;0.90;61.34;102309.14;107237;1248;74969;-72
2022/01/19 09:15:25;;;;;;;21.70;10.20;;;;;;;0.97;61.66;102305.13;107217;1250;72922;-72
2022/01/19 09:17:54;;;;;;;21.50;10.10;;;;;;;1.05;61.11;102304.73;107341;1250;69967;-73
2022/01/19 09:20:23;;;;;;;20.30;11.30;;;;;;;1.03;61.26;102299.77;107266;1250;72788;-72
2022/01/19 09:22:52;;;;;;;20.50;9.70;;;;;;;1.20;60.83;102298.11;107442;1249;59804;-75
2022/01/19 09:25:21;;;;;;;17.50;9.30;;;;;;;1.25;60.07;102292.91;107433;1250;58971;-76
2022/01/19 09:27:51;;;;;;;20.00;10.40;;;;;;;1.35;59.34;102294.03;107294;1250;73594;-75
2022/01/19 09:30:23;;;;;;;18.90;8.80;;;;;;;1.54;59.28;102285.27;107438;1250;72337;-72
2022/01/19 09:33:06;;;;;;;21.00;9.80;;;;;;;1.60;58.33;102276.27;107263;1250;69085;-74
2022/01/19 09:38:40;;;;;;;19.80;8.00;;;;;;;1.50;58.50;102269.67;107205;1250;60781;-74
2022/01/19 09:41:10;;;;;;;16.90;7.80;;;;;;;1.57;58.38;102262.90;107134;1250;60666;-72
2022/01/19 09:43:41;;;;;;;16.30;7.90;;;;;;;1.60;58.26;102252.39;107037;1250;74037;-74
2022/01/19 09:46:10;;;;;;;16.50;8.40;;;;;;;1.62;57.88;102249.13;107290;1250;71001;-71
2022/01/19 09:48:40;;;;;;;10.70;5.60;;;;;;;1.58;57.55;102239.55;107162;1250;68955;-73
2022/01/19 09:51:09;;;;;;;12.70;7.30;;;;;;;1.55;57.66;102235.61;107115;1250;72014;-73
2022/01/19 09:53:38;;;;;;;14.00;7.60;;;;;;;1.65;57.66;102227.29;107169;1250;59117;-74
2022/01/19 09:56:08;;;;;;;11.70;6.20;;;;;;;1.61;57.54;102221.30;107481;1249;60324;-72
2022/01/19 09:58:37;;;;;;;17.20;8.90;;;;;;;1.54;57.31;102224.98;107392;1250;71333;-74
2022/01/19 10:01:06;;;;;;;16.00;6.90;;;;;;;1.58;57.19;102222.21;107427;1249;71268;-78
2022/01/19 10:03:36;;;;;;;11.30;6.70;;;;;;;1.72;56.91;102216.38;107390;1250;70505;-76
2022/01/19 10:06:15;;;;;;;14.90;6.90;;;;;;;1.89;56.51;102221.68;107343;1251;72527;-72
2022/01/19 10:08:56;;;;;;;13.20;6.70;;;;;;;2.03;55.58;102208.60;107259;1250;60813;-72
2022/01/19 10:17:10;;;;;;;10.60;5.30;;;;;;;2.27;55.62;102203.12;107557;1250;69790;-78
2022/01/19 10:19:51;;;;;;;16.10;7.10;;;;;;;2.56;54.77;102206.30;107408;1250;68295;-75
2022/01/19 10:22:25;;;;;;;11.80;6.50;;;;;;;2.58;54.40;102202.66;107147;1250;71929;-74
2022/01/19 10:25:04;;;;;;;12.80;6.60;;;;;;;2.55;53.69;102192.40;107161;1250;59394;-77
2022/01/19 10:27:45;;;;;;;14.40;7.80;;;;;;;2.37;54.78;102184.23;107004;1250;60431;-76
2022/01/19 10:30:25;;;;;;;16.60;7.90;;;;;;;2.48;55.01;102188.38;107070;1250;70909;-74
2022/01/19 10:33:02;;;;;;;13.40;6.50;;;;;;;2.58;54.81;102171.37;107200;1250;69819;-76
2022/01/19 10:35:36;;;;;;;12.60;6.10;;;;;;;2.62;53.85;102171.48;107161;1250;68890;-75
2022/01/19 10:38:14;;;;;;;14.40;6.60;;;;;;;2.55;53.64;102168.84;107260;1249;73887;-80
2022/01/19 10:40:56;;;;;;;19.50;7.30;;;;;;;2.54;53.70;102163.52;107231;1250;61517;-78
2022/01/19 10:43:48;;;;;;;12.00;6.20;;;;;;;2.60;53.58;102147.43;107115;1250;60216;-77
2022/01/19 10:46:39;;;;;;;15.90;6.90;;;;;;;2.77;53.20;102149.72;106939;1251;74368;-74
2022/01/19 10:49:10;;;;;;;12.90;6.90;;;;;;;2.70;53.27;102156.38;107006;1251;70185;-75
2022/01/19 10:51:46;;;;;;;12.20;7.30;;;;;;;2.82;53.66;102154.46;106873;1253;68140;-77
2022/01/19 10:54:22;;;;;;;11.50;6.20;;;;;;;2.83;52.51;102153.22;107090;1251;73204;-76
2022/01/19 10:57:00;;;;;;;13.10;7.40;;;;;;;2.88;51.51;102158.13;107147;1250;60069;-77
2022/01/19 10:59:50;;;;;;;13.90;6.50;;;;;;;2.80;51.26;102157.59;107074;1250;60469;-76
2022/01/19 11:02:19;;;;;;;12.30;6.70;;;;;;;3.05;51.61;102154.55;107023;1253;73264;-75
2022/01/19 11:04:49;;;;;;;14.80;6.00;;;;;;;3.15;51.23;102148.20;107239;1250;72986;-71
2022/01/19 11:07:22;;;;;;;16.60;7.90;;;;;;;3.24;50.94;102148.03;107287;1250;70943;-77
2022/01/19 11:10:00;;;;;;;12.10;5.70;;;;;;;3.39;50.62;102137.92;107250;1250;72593;-75
2022/01/19 11:12:34;;;;;;;11.90;6.10;;;;;;;3.42;50.47;102132.86;107195;1251;59068;-73
2022/01/19 11:15:03;;;;;;;9.10;4.00;;;;;;;3.42;49.67;102132.16;107268;1250;58941;-74
2022/01/19 11:17:38;;;;;;;12.80;6.00;;;;;;;3.38;49.46;102127.77;107148;1250;73447;-76
2022/01/19 11:20:12;;;;;;;9.50;4.80;;;;;;;3.14;49.53;102131.33;107106;1250;71483;-73
2022/01/19 11:23:19;;;;;;;12.30;5.70;;;;;;;3.06;49.77;102125.45;107050;1251;70685;-74
2022/01/19 11:26:04;;;;;;;13.90;5.80;;;;;;;3.06;49.72;102119.61;107158;1250;73520;-74
2022/01/19 11:28:44;;;;;;;12.10;5.20;;;;;;;2.91;49.27;102110.07;107199;1250;60143;-69
2022/01/19 11:31:36;;;;;;;9.90;4.80;;;;;;;2.75;49.71;102099.69;107172;1250;59720;-76
2022/01/19 11:34:05;;;;;;;10.60;5.50;;;;;;;2.73;50.27;102091.83;107111;1251;72506;-75
2022/01/19 11:36:42;;;;;;;10.80;5.60;;;;;;;2.76;49.96;102089.70;107163;1250;70269;-74
2022/01/19 11:39:17;;;;;;;10.30;5.40;;;;;;;2.73;49.82;102089.94;107040;1250;67896;-76
2022/01/19 11:41:59;;;;;;;9.00;4.40;;;;;;;2.70;49.96;102092.22;107139;1250;72962;-74
2022/01/19 11:44:28;;;;;;;10.80;5.70;;;;;;;2.67;49.39;102091.06;107274;1250;60829;-76
2022/01/19 11:47:21;;;;;;;12.90;5.80;;;;;;;2.81;49.40;102094.23;107504;1250;61118;-75
2022/01/19 11:50:08;;;;;;;14.00;6.60;;;;;;;2.79;48.34;102085.84;107235;1250;70861;-75
2022/01/19 11:52:41;;;;;;;9.40;4.50;;;;;;;2.87;48.73;102076.59;107280;1250;70331;-76
2022/01/19 11:55:16;;;;;;;11.50;4.80;;;;;;;3.05;48.47;102071.26;107322;1249;70957;-73
2022/01/19 11:57:48;;;;;;;12.70;4.80;;;;;;;3.41;48.07;102069.15;107372;1249;75306;-73
2022/01/19 12:00:32;;;;;;;11.60;5.10;;;;;;;3.72;48.02;102063.48;107226;1250;60514;-74
2022/01/19 12:03:33;;;;;;;9.60;5.20;;;;;;;4.21;46.67;102052.33;106980;1250;60045;-77
2022/01/19 12:06:37;;;;;;;11.10;4.80;;;;;;;4.53;46.05;102055.69;107148;1250;71515;-75
2022/01/19 12:09:08;;;;;;;9.60;4.10;;;;;;;4.95;46.07;102054.20;107168;1249;72368;-73
2022/01/19 12:11:50;;;;;;;7.90;3.70;;;;;;;5.12;43.10;102053.73;107069;1251;72020;-72
2022/01/19 12:14:35;;;;;;;7.10;3.60;;;;;;;5.13;41.71;102053.20;107439;1250;73933;-78
2022/01/19 12:17:08;;;;;;;7.30;3.80;;;;;;;5.10;42.80;102040.85;107267;1249;59016;-79
2022/01/19 12:19:43;;;;;;;8.90;4.50;;;;;;;5.61;43.78;102038.13;107456;1250;61774;-75
2022/01/19 12:22:25;;;;;;;10.00;4.50;;;;;;;5.77;43.81;102040.23;107355;1250;73314;-78
2022/01/19 12:24:56;;;;;;;6.90;3.90;;;;;;;5.52;42.36;102045.84;107448;1250;70743;-77
2022/01/19 12:27:33;;;;;;;8.30;4.40;;;;;;;5.45;44.07;102046.39;107224;1250;69569;-73
2022/01/19 12:30:15;;;;;;;6.60;3.50;;;;;;;5.25;42.78;102039.02;107185;1250;73501;-78
2022/01/19 12:32:55;;;;;;;5.60;2.60;;;;;;;4.85;41.08;102039.30;107422;1249;59757;-78
2022/01/19 12:35:35;;;;;;;5.00;2.50;;;;;;;4.66;40.42;102044.98;107109;1249;61097;-75
2022/01/19 12:38:18;;;;;;;8.00;2.80;;;;;;;4.30;40.98;102033.84;107044;1250;73533;-78
2022/01/19 12:40:55;;;;;;;6.40;2.50;;;;;;;4.31;41.22;102029.86;107435;1249;70185;-75
2022/01/19 12:43:28;;;;;;;4.60;2.70;;;;;;;4.16;41.29;102017.29;107254;1250;70602;-77
2022/01/19 12:45:58;;;;;;;7.20;2.60;;;;;;;4.02;41.25;102021.77;107396;1250;73628;-74
2022/01/19 12:48:48;;;;;;;6.30;3.70;;;;;;;3.87;40.93;102019.88;107325;1250;59770;-72
2022/01/19 12:51:44;;;;;;;6.60;3.20;;;;;;;3.76;41.17;102017.05;107340;1250;62189;-77
2022/01/19 12:54:16;;;;;;;5.20;3.40;;;;;;;3.70;41.34;102009.27;107359;1248;74281;-75
2022/01/19 12:57:01;;;;;;;7.70;3.20;;;;;;;3.65;41.83;102009.36;107483;1249;72227;-73
2022/01/19 12:59:35;;;;;;;10.30;4.00;;;;;;;3.67;42.26;102011.92;107161;1250;70883;-77
2022/01/19 13:02:04;;;;;;;;;;;;;;;3.65;42.34;102010.73;107571;1249;75139;-74
2022/01/19 13:04:37;;;;;;;5.10;2.80;;;;;;;3.78;42.21;102013.91;107103;1250;60402;-73
2022/01/19 13:07:20;;;;;;;4.70;2.80;;;;;;;3.90;41.68;102016.88;107225;1249;60754;-75
2022/01/19 13:10:27;;;;;;;7.00;3.20;;;;;;;4.41;42.29;102016.15;107275;1250;75042;-75
2022/01/19 13:15:57;;;;;;;6.40;2.90;;;;;;;5.22;40.68;102006.30;107394;1249;69124;-76
2022/01/19 13:18:43;;;;;;;7.50;3.30;;;;;;;5.36;40.22;102014.70;106945;1250;72315;-75
2022/01/19 13:21:17;;;;;;;7.50;3.20;;;;;;;5.18;39.70;102004.86;106934;1250;58983;-75
2022/01/19 13:24:19;;;;;;;5.90;3.40;;;;;;;4.96;40.16;102001.02;107336;1250;58966;-77
2022/01/19 13:27:00;;;;;;;6.40;3.40;;;;;;;4.56;40.86;101995.20;107210;1250;73703;-80
2022/01/19 13:29:39;;;;;;;7.30;4.00;;;;;;;4.39;40.95;101991.00;107320;1250;71705;-73
2022/01/19 13:32:14;;;;;;;7.80;4.00;;;;;;;3.97;40.55;101987.24;107199;1250;70664;-75